createdAt,value
2023-05-09T00:00:00.063Z,14.99
2023-05-09T00:01:00.085Z,15.01
2023-05-09T00:02:00.036Z,15.02
2023-05-09T00:03:00.208Z,15.02
2023-05-09T00:04:00.098Z,15.01
2023-05-09T00:04:59.979Z,15.02
2023-05-09T00:05:59.984Z,15.02
2023-05-09T00:06:59.988Z,14.99
2023-05-09T00:07:59.948Z,14.95
2023-05-09T00:08:59.935Z,14.92
2023-05-09T00:09:59.987Z,14.92
2023-05-09T00:10:59.909Z,14.92
2023-05-09T00:11:59.925Z,14.91
2023-05-09T00:12:59.945Z,14.88
2023-05-09T00:13:59.880Z,14.86
2023-05-09T00:14:59.938Z,14.82
2023-05-09T00:15:59.881Z,14.80
2023-05-09T00:16:59.891Z,14.81
2023-05-09T00:17:59.885Z,14.83
2023-05-09T00:18:59.854Z,14.85
2023-05-09T00:19:59.826Z,14.86
2023-05-09T00:20:59.832Z,14.87
2023-05-09T00:21:59.798Z,14.88
2023-05-09T00:22:59.804Z,14.89
2023-05-09T00:23:59.764Z,14.87
2023-05-09T00:24:59.757Z,14.84
2023-05-09T00:25:59.775Z,14.82
2023-05-09T00:26:59.775Z,14.83
2023-05-09T00:27:59.725Z,14.85
2023-05-09T00:28:59.735Z,14.86
2023-05-09T00:29:59.730Z,14.84
2023-05-09T00:30:59.725Z,14.81
2023-05-09T00:31:59.725Z,14.79
2023-05-09T00:32:59.793Z,14.79
2023-05-09T00:33:59.691Z,14.80
2023-05-09T00:34:59.683Z,14.80
2023-05-09T00:35:59.668Z,14.78
2023-05-09T00:36:59.649Z,14.75
2023-05-09T00:37:59.650Z,14.74
2023-05-09T00:38:59.637Z,14.73
2023-05-09T00:39:59.603Z,14.75
2023-05-09T00:40:59.592Z,14.77
2023-05-09T00:41:59.592Z,14.79
2023-05-09T00:42:59.597Z,14.79
2023-05-09T00:43:59.603Z,14.78
2023-05-09T00:44:59.592Z,14.74
2023-05-09T00:45:59.571Z,14.68
2023-05-09T00:46:59.536Z,14.65
2023-05-09T00:47:59.628Z,14.63
2023-05-09T00:48:59.543Z,14.61
2023-05-09T00:49:59.496Z,14.59
2023-05-09T00:50:59.574Z,14.59
2023-05-09T00:51:59.482Z,14.57
2023-05-09T00:52:59.475Z,14.54
2023-05-09T00:53:59.465Z,14.50
2023-05-09T00:54:59.437Z,14.48
2023-05-09T00:55:59.443Z,14.47
2023-05-09T00:56:59.447Z,14.47
2023-05-09T00:57:59.418Z,14.49
2023-05-09T00:58:59.412Z,14.50
2023-05-09T00:59:59.414Z,14.51
2023-05-09T01:00:59.460Z,14.54
2023-05-09T01:01:59.372Z,14.56
2023-05-09T01:02:59.493Z,14.58
2023-05-09T01:03:59.349Z,14.57
2023-05-09T01:04:59.346Z,14.56
2023-05-09T01:05:59.340Z,14.57
2023-05-09T01:06:59.356Z,14.57
2023-05-09T01:07:59.308Z,14.56
2023-05-09T01:08:59.293Z,14.57
2023-05-09T01:09:59.281Z,14.58
2023-05-09T01:10:59.420Z,14.56
2023-05-09T01:11:59.284Z,14.52
2023-05-09T01:12:59.400Z,14.44
2023-05-09T01:13:59.256Z,14.39
2023-05-09T01:14:59.267Z,14.39
2023-05-09T01:15:59.291Z,14.41
2023-05-09T01:16:59.217Z,14.43
2023-05-09T01:17:59.281Z,14.46
2023-05-09T01:18:59.207Z,14.47
2023-05-09T01:19:59.181Z,14.49
2023-05-09T01:20:59.167Z,14.51
2023-05-09T01:21:59.178Z,14.54
2023-05-09T01:22:59.147Z,14.57
2023-05-09T01:23:59.169Z,14.59
2023-05-09T01:24:59.155Z,14.59
2023-05-09T01:25:59.150Z,14.58
2023-05-09T01:26:59.110Z,14.58
2023-05-09T01:27:59.111Z,14.57
2023-05-09T01:28:59.090Z,14.54
2023-05-09T01:29:59.170Z,14.48
2023-05-09T01:30:59.142Z,14.44
2023-05-09T01:31:59.084Z,14.43
2023-05-09T01:32:59.052Z,14.41
2023-05-09T01:33:59.035Z,14.40
2023-05-09T01:34:59.091Z,14.39
2023-05-09T01:35:59.039Z,14.38
2023-05-09T01:36:59.003Z,14.36
2023-05-09T01:37:58.993Z,14.35
2023-05-09T01:38:58.988Z,14.32
2023-05-09T01:39:58.979Z,14.30
2023-05-09T01:40:58.956Z,14.26
2023-05-09T01:41:58.989Z,14.22
2023-05-09T01:42:58.933Z,14.20
2023-05-09T01:43:58.961Z,14.19
2023-05-09T01:44:58.918Z,14.17
2023-05-09T01:45:58.931Z,14.15
2023-05-09T01:46:58.973Z,14.14
2023-05-09T01:47:58.983Z,14.14
2023-05-09T01:48:58.872Z,14.11
2023-05-09T01:49:58.866Z,14.09
2023-05-09T01:50:58.905Z,14.07
2023-05-09T01:51:58.846Z,14.03
2023-05-09T01:52:58.846Z,13.99
2023-05-09T01:53:58.831Z,14.00
2023-05-09T01:54:58.812Z,14.04
2023-05-09T01:55:58.803Z,14.06
2023-05-09T01:56:58.808Z,14.05
2023-05-09T01:57:58.802Z,14.04
2023-05-09T01:58:58.797Z,14.06
2023-05-09T01:59:58.774Z,14.05
2023-05-09T02:00:58.818Z,14.05
2023-05-09T02:01:58.805Z,14.05
2023-05-09T02:02:58.832Z,14.07
2023-05-09T02:03:58.718Z,14.07
2023-05-09T02:04:58.728Z,14.08
2023-05-09T02:05:58.704Z,14.07
2023-05-09T02:06:58.705Z,14.06
2023-05-09T02:07:58.724Z,14.03
2023-05-09T02:08:58.664Z,14.02
2023-05-09T02:09:58.677Z,14.02
2023-05-09T02:10:58.660Z,14.02
2023-05-09T02:11:58.646Z,14.02
2023-05-09T02:12:58.673Z,14.01
2023-05-09T02:13:58.614Z,13.98
2023-05-09T02:14:58.605Z,13.97
2023-05-09T02:15:58.623Z,13.97
2023-05-09T02:16:58.687Z,13.97
2023-05-09T02:17:58.645Z,13.97
2023-05-09T02:18:58.561Z,13.97
2023-05-09T02:19:58.561Z,13.98
2023-05-09T02:20:58.611Z,13.97
2023-05-09T02:21:58.557Z,13.96
2023-05-09T02:22:58.523Z,13.97
2023-05-09T02:23:58.554Z,13.98
2023-05-09T02:24:58.511Z,13.99
2023-05-09T02:25:58.544Z,13.98
2023-05-09T02:26:58.488Z,13.96
2023-05-09T02:27:58.529Z,13.94
2023-05-09T02:28:58.451Z,13.91
2023-05-09T02:29:58.447Z,13.87
2023-05-09T02:30:58.458Z,13.84
2023-05-09T02:31:58.444Z,13.84
2023-05-09T02:32:58.475Z,13.86
2023-05-09T02:33:58.411Z,13.89
2023-05-09T02:34:58.449Z,13.92
2023-05-09T02:35:58.384Z,13.93
2023-05-09T02:36:58.418Z,13.93
2023-05-09T02:37:58.404Z,13.94
2023-05-09T02:38:58.352Z,13.92
2023-05-09T02:39:58.341Z,13.90
2023-05-09T02:40:58.328Z,13.85
2023-05-09T02:41:58.336Z,13.80
2023-05-09T02:42:58.347Z,13.77
2023-05-09T02:43:58.347Z,13.74
2023-05-09T02:44:58.284Z,13.71
2023-05-09T02:45:58.325Z,13.72
2023-05-09T02:46:58.261Z,13.75
2023-05-09T02:47:58.310Z,13.78
2023-05-09T02:48:58.309Z,13.77
2023-05-09T02:49:58.293Z,13.74
2023-05-09T02:50:58.237Z,13.72
2023-05-09T02:51:58.215Z,13.72
2023-05-09T02:52:58.209Z,13.71
2023-05-09T02:53:58.234Z,13.71
2023-05-09T02:54:58.215Z,13.74
2023-05-09T02:55:58.188Z,13.77
2023-05-09T02:56:58.167Z,13.79
2023-05-09T02:58:12.003Z,13.80
2023-05-09T02:58:58.185Z,13.80
2023-05-09T02:59:58.175Z,13.80
2023-05-09T03:00:58.151Z,13.80
2023-05-09T03:01:58.157Z,13.78
2023-05-09T03:02:58.122Z,13.77
2023-05-09T03:03:58.116Z,13.76
2023-05-09T03:04:58.093Z,13.74
2023-05-09T03:05:58.078Z,13.71
2023-05-09T03:06:58.066Z,13.67
2023-05-09T03:07:58.054Z,13.65
2023-05-09T03:08:58.047Z,13.63
2023-05-09T03:09:58.041Z,13.61
2023-05-09T03:10:58.039Z,13.60
2023-05-09T03:11:58.028Z,13.58
2023-05-09T03:12:58.065Z,13.58
2023-05-09T03:13:57.998Z,13.58
2023-05-09T03:14:57.967Z,13.58
2023-05-09T03:15:58.010Z,13.60
2023-05-09T03:16:57.994Z,13.61
2023-05-09T03:17:58.032Z,13.63
2023-05-09T03:18:57.936Z,13.64
2023-05-09T03:19:57.963Z,13.65
2023-05-09T03:20:57.912Z,13.65
2023-05-09T03:21:57.922Z,13.64
2023-05-09T03:22:57.943Z,13.63
2023-05-09T03:23:57.895Z,13.62
2023-05-09T03:24:57.872Z,13.62
2023-05-09T03:25:57.861Z,13.63
2023-05-09T03:26:57.878Z,13.62
2023-05-09T03:27:57.840Z,13.61
2023-05-09T03:28:57.837Z,13.62
2023-05-09T03:29:57.829Z,13.64
2023-05-09T03:30:57.795Z,13.66
2023-05-09T03:31:57.793Z,13.67
2023-05-09T03:32:57.858Z,13.67
2023-05-09T03:33:57.770Z,13.67
2023-05-09T03:34:57.789Z,13.66
2023-05-09T03:35:57.758Z,13.64
2023-05-09T03:36:57.739Z,13.63
2023-05-09T03:37:57.766Z,13.64
2023-05-09T03:38:57.722Z,13.64
2023-05-09T03:39:57.732Z,13.63
2023-05-09T03:40:57.715Z,13.64
2023-05-09T03:41:57.691Z,13.65
2023-05-09T03:42:57.754Z,13.64
2023-05-09T03:43:57.683Z,13.64
2023-05-09T03:44:57.687Z,13.64
2023-05-09T03:45:57.660Z,13.65
2023-05-09T03:46:57.720Z,13.67
2023-05-09T03:47:57.672Z,13.67
2023-05-09T03:48:57.641Z,13.68
2023-05-09T03:49:57.607Z,13.70
2023-05-09T03:50:57.600Z,13.70
2023-05-09T03:51:57.601Z,13.70
2023-05-09T03:52:57.589Z,13.69
2023-05-09T03:53:57.588Z,13.68
2023-05-09T03:54:57.568Z,13.67
2023-05-09T03:55:57.552Z,13.69
2023-05-09T03:56:57.557Z,13.68
2023-05-09T03:57:57.538Z,13.64
2023-05-09T03:58:57.528Z,13.62
2023-05-09T03:59:57.567Z,13.63
2023-05-09T04:00:57.504Z,13.62
2023-05-09T04:01:57.526Z,13.61
2023-05-09T04:02:57.565Z,13.59
2023-05-09T04:03:57.581Z,13.60
2023-05-09T04:04:57.519Z,13.63
2023-05-09T04:05:57.458Z,13.64
2023-05-09T04:06:57.427Z,13.62
2023-05-09T04:07:57.438Z,13.62
2023-05-09T04:08:57.400Z,13.65
2023-05-09T04:09:57.391Z,13.68
2023-05-09T04:10:57.412Z,13.70
2023-05-09T04:11:57.384Z,13.71
2023-05-09T04:12:57.409Z,13.73
2023-05-09T04:13:57.355Z,13.76
2023-05-09T04:14:57.381Z,13.77
2023-05-09T04:15:57.342Z,13.76
2023-05-09T04:16:57.432Z,13.77
2023-05-09T04:17:57.349Z,13.81
2023-05-09T04:18:57.307Z,13.86
2023-05-09T04:19:57.293Z,13.90
2023-05-09T04:20:57.300Z,13.92
2023-05-09T04:21:57.286Z,13.92
2023-05-09T04:22:57.289Z,13.90
2023-05-09T04:23:57.269Z,13.89
2023-05-09T04:24:57.236Z,13.90
2023-05-09T04:25:57.276Z,13.92
2023-05-09T04:26:57.247Z,13.94
2023-05-09T04:27:57.205Z,13.95
2023-05-09T04:28:57.214Z,13.94
2023-05-09T04:29:57.179Z,13.93
2023-05-09T04:30:57.300Z,13.93
2023-05-09T04:31:57.352Z,13.94
2023-05-09T04:32:57.171Z,13.96
2023-05-09T04:33:57.147Z,13.96
2023-05-09T04:34:57.157Z,13.95
2023-05-09T04:35:57.128Z,13.94
2023-05-09T04:36:57.120Z,13.93
2023-05-09T04:37:57.112Z,13.91
2023-05-09T04:38:57.094Z,13.89
2023-05-09T04:39:57.083Z,13.88
2023-05-09T04:40:57.100Z,13.88
2023-05-09T04:41:57.067Z,13.90
2023-05-09T04:42:57.071Z,13.93
2023-05-09T04:43:57.039Z,13.95
2023-05-09T04:44:57.064Z,13.97
2023-05-09T04:45:57.038Z,13.99
2023-05-09T04:46:57.038Z,14.01
2023-05-09T04:47:57.048Z,14.02
2023-05-09T04:48:57.009Z,14.04
2023-05-09T04:49:56.978Z,14.04
2023-05-09T04:50:57.005Z,14.03
2023-05-09T04:51:56.979Z,14.03
2023-05-09T04:52:56.950Z,14.04
2023-05-09T04:53:56.958Z,14.06
2023-05-09T04:54:56.967Z,14.06
2023-05-09T04:55:56.920Z,14.06
2023-05-09T04:57:06.422Z,14.08
2023-05-09T04:57:56.938Z,14.09
2023-05-09T04:58:56.895Z,14.12
2023-05-09T04:59:56.868Z,14.14
2023-05-09T05:00:56.860Z,14.15
2023-05-09T05:01:56.888Z,14.15
2023-05-09T05:02:56.908Z,14.16
2023-05-09T05:03:56.872Z,14.17
2023-05-09T05:05:10.234Z,14.19
2023-05-09T05:05:56.814Z,14.21
2023-05-09T05:06:56.797Z,14.24
2023-05-09T05:07:56.833Z,14.25
2023-05-09T05:08:56.805Z,14.24
2023-05-09T05:09:56.779Z,14.20
2023-05-09T05:10:56.761Z,14.17
2023-05-09T05:12:01.711Z,14.16
2023-05-09T05:12:56.775Z,14.16
2023-05-09T05:13:56.752Z,14.19
2023-05-09T05:14:56.790Z,14.23
2023-05-09T05:15:56.714Z,14.28
2023-05-09T05:16:56.722Z,14.32
2023-05-09T05:17:56.734Z,14.34
2023-05-09T05:18:56.683Z,14.35
2023-05-09T05:19:56.682Z,14.37
2023-05-09T05:20:56.709Z,14.39
2023-05-09T05:21:56.633Z,14.40
2023-05-09T05:22:56.651Z,14.39
2023-05-09T05:23:56.631Z,14.37
2023-05-09T05:24:56.608Z,14.37
2023-05-09T05:25:56.600Z,14.39
2023-05-09T05:26:56.643Z,14.43
2023-05-09T05:27:56.584Z,14.47
2023-05-09T05:28:56.605Z,14.50
2023-05-09T05:29:56.567Z,14.51
2023-05-09T05:30:56.589Z,14.51
2023-05-09T05:31:56.905Z,14.53
2023-05-09T05:32:56.588Z,14.55
2023-05-09T05:33:56.556Z,14.56
2023-05-09T05:34:56.497Z,14.57
2023-05-09T05:35:56.487Z,14.57
2023-05-09T05:36:56.478Z,14.58
2023-05-09T05:37:56.590Z,14.59
2023-05-09T05:38:56.461Z,14.61
2023-05-09T05:39:56.445Z,14.62
2023-05-09T05:40:56.438Z,14.63
2023-05-09T05:41:56.460Z,14.64
2023-05-09T05:42:56.416Z,14.66
2023-05-09T05:43:56.401Z,14.69
2023-05-09T05:44:56.404Z,14.73
2023-05-09T05:45:56.471Z,14.77
2023-05-09T05:46:56.373Z,14.79
2023-05-09T05:47:56.456Z,14.80
2023-05-09T05:48:56.356Z,14.80
2023-05-09T05:49:56.347Z,14.82
2023-05-09T05:50:56.369Z,14.83
2023-05-09T05:51:56.621Z,14.82
2023-05-09T05:52:56.345Z,14.80
2023-05-09T05:53:56.446Z,14.82
2023-05-09T05:54:56.309Z,14.84
2023-05-09T05:55:56.291Z,14.85
2023-05-09T05:56:56.297Z,14.85
2023-05-09T05:57:56.272Z,14.86
2023-05-09T05:58:56.286Z,14.87
2023-05-09T05:59:56.255Z,14.89
2023-05-09T06:00:56.248Z,14.88
2023-05-09T06:01:56.359Z,14.88
2023-05-09T06:02:56.405Z,14.91
2023-05-09T06:03:56.331Z,14.93
2023-05-09T06:04:56.310Z,14.93
2023-05-09T06:05:56.233Z,14.93
2023-05-09T06:06:56.181Z,14.92
2023-05-09T06:07:56.218Z,14.91
2023-05-09T06:08:56.146Z,14.92
2023-05-09T06:09:56.139Z,14.94
2023-05-09T06:10:56.281Z,14.96
2023-05-09T06:11:56.126Z,14.97
2023-05-09T06:12:56.409Z,14.98
2023-05-09T06:13:56.200Z,14.98
2023-05-09T06:14:56.132Z,14.97
2023-05-09T06:15:57.729Z,14.95
2023-05-09T06:16:56.161Z,14.95
2023-05-09T06:17:56.125Z,14.94
2023-05-09T06:18:56.411Z,14.95
2023-05-09T06:19:56.056Z,14.98
2023-05-09T06:20:56.049Z,15.02
2023-05-09T06:21:56.087Z,15.06
2023-05-09T06:22:56.001Z,15.09
2023-05-09T06:24:56.137Z,15.15
2023-05-09T06:25:55.965Z,15.18
2023-05-09T06:26:55.999Z,15.21
2023-05-09T06:27:55.955Z,15.23
2023-05-09T06:28:56.013Z,15.23
2023-05-09T06:29:55.951Z,15.20
2023-05-09T06:30:56.005Z,15.19
2023-05-09T06:31:56.053Z,15.19
2023-05-09T06:32:55.968Z,15.20
2023-05-09T06:33:55.934Z,15.21
2023-05-09T06:34:55.915Z,15.22
2023-05-09T06:35:55.859Z,15.22
2023-05-09T06:36:55.898Z,15.22
2023-05-09T06:37:55.869Z,15.23
2023-05-09T06:38:55.830Z,15.22
2023-05-09T06:39:55.814Z,15.22
2023-05-09T06:40:55.843Z,15.22
2023-05-09T06:41:55.876Z,15.23
2023-05-09T06:42:55.816Z,15.23
2023-05-09T06:43:55.807Z,15.24
2023-05-09T06:44:55.822Z,15.25
2023-05-09T06:45:55.882Z,15.26
2023-05-09T06:46:55.777Z,15.27
2023-05-09T06:47:55.809Z,15.28
2023-05-09T06:48:55.742Z,15.28
2023-05-09T06:49:55.741Z,15.28
2023-05-09T06:50:55.758Z,15.28
2023-05-09T06:51:55.696Z,15.28
2023-05-09T06:52:55.789Z,15.28
2023-05-09T06:53:55.708Z,15.27
2023-05-09T06:54:55.731Z,15.28
2023-05-09T06:55:55.677Z,15.29
2023-05-09T06:56:55.653Z,15.29
2023-05-09T06:57:55.648Z,15.30
2023-05-09T06:58:55.679Z,15.33
2023-05-09T06:59:55.658Z,15.36
2023-05-09T07:00:55.639Z,15.37
2023-05-09T07:01:55.644Z,15.37
2023-05-09T07:02:55.667Z,15.38
2023-05-09T07:03:55.585Z,15.40
2023-05-09T07:04:55.697Z,15.40
2023-05-09T07:05:55.555Z,15.40
2023-05-09T07:06:55.638Z,15.38
2023-05-09T07:07:55.551Z,15.36
2023-05-09T07:08:55.567Z,15.35
2023-05-09T07:10:07.249Z,15.35
2023-05-09T07:10:55.526Z,15.37
2023-05-09T07:11:55.549Z,15.39
2023-05-09T07:12:55.547Z,15.41
2023-05-09T07:13:55.490Z,15.43
2023-05-09T07:14:55.489Z,15.45
2023-05-09T07:15:55.492Z,15.48
2023-05-09T07:17:05.243Z,15.50
2023-05-09T07:17:55.467Z,15.53
2023-05-09T07:18:55.452Z,15.55
2023-05-09T07:19:55.418Z,15.56
2023-05-09T07:20:55.434Z,15.57
2023-05-09T07:21:55.415Z,15.57
2023-05-09T07:22:55.529Z,15.58
2023-05-09T07:23:55.355Z,15.60
2023-05-09T07:24:55.435Z,15.62
2023-05-09T07:25:55.352Z,15.63
2023-05-09T07:26:55.334Z,15.65
2023-05-09T07:27:55.384Z,15.67
2023-05-09T07:28:55.328Z,15.67
2023-05-09T07:29:55.523Z,15.68
2023-05-09T07:30:55.306Z,15.69
2023-05-09T07:31:55.315Z,15.71
2023-05-09T07:32:55.358Z,15.72
2023-05-09T07:33:55.264Z,15.73
2023-05-09T07:34:55.273Z,15.73
2023-05-09T07:35:55.343Z,15.73
2023-05-09T07:36:55.251Z,15.74
2023-05-09T07:37:55.242Z,15.77
2023-05-09T07:38:55.246Z,15.81
2023-05-09T07:39:55.207Z,15.84
2023-05-09T07:40:55.190Z,15.85
2023-05-09T07:41:55.209Z,15.86
2023-05-09T07:42:55.263Z,15.89
2023-05-09T07:43:55.158Z,15.91
2023-05-09T07:44:55.171Z,15.91
2023-05-09T07:45:55.225Z,15.92
2023-05-09T07:46:55.143Z,15.92
2023-05-09T07:47:55.212Z,15.94
2023-05-09T07:48:55.150Z,15.96
2023-05-09T07:49:55.116Z,15.98
2023-05-09T07:50:55.102Z,16.00
2023-05-09T07:51:55.139Z,16.01
2023-05-09T07:52:55.106Z,16.02
2023-05-09T07:53:55.082Z,16.04
2023-05-09T07:54:55.040Z,16.05
2023-05-09T07:55:55.030Z,16.07
2023-05-09T07:56:55.033Z,16.10
2023-05-09T07:57:55.009Z,16.14
2023-05-09T07:58:55.691Z,16.18
2023-05-09T07:59:55.023Z,16.21
2023-05-09T08:00:54.980Z,16.24
2023-05-09T08:01:55.017Z,16.26
2023-05-09T08:02:55.081Z,16.28
2023-05-09T08:03:55.035Z,16.30
2023-05-09T08:04:54.988Z,16.33
2023-05-09T08:05:54.987Z,16.39
2023-05-09T08:06:54.921Z,16.44
2023-05-09T08:07:54.912Z,16.49
2023-05-09T08:08:54.928Z,16.52
2023-05-09T08:09:54.870Z,16.55
2023-05-09T08:10:54.875Z,16.57
2023-05-09T08:11:54.861Z,16.61
2023-05-09T08:12:54.873Z,16.65
2023-05-09T08:13:54.857Z,16.67
2023-05-09T08:14:54.807Z,16.71
2023-05-09T08:15:54.849Z,16.76
2023-05-09T08:16:54.882Z,16.82
2023-05-09T08:17:54.855Z,16.88
2023-05-09T08:18:54.791Z,16.94
2023-05-09T08:19:54.793Z,16.98
2023-05-09T08:20:54.826Z,17.02
2023-05-09T08:21:54.760Z,17.05
2023-05-09T08:22:54.745Z,17.10
2023-05-09T08:23:54.728Z,17.13
2023-05-09T08:24:54.726Z,17.14
2023-05-09T08:25:54.718Z,17.16
2023-05-09T08:26:54.714Z,17.19
2023-05-09T08:27:54.727Z,17.21
2023-05-09T08:28:54.684Z,17.24
2023-05-09T08:29:54.693Z,17.30
2023-05-09T08:30:54.761Z,17.34
2023-05-09T08:31:54.647Z,17.36
2023-05-09T08:32:54.730Z,17.38
2023-05-09T08:33:54.622Z,17.41
2023-05-09T08:34:54.638Z,17.42
2023-05-09T08:35:54.709Z,17.44
2023-05-09T08:36:54.600Z,17.47
2023-05-09T08:37:54.572Z,17.55
2023-05-09T08:38:54.600Z,17.64
2023-05-09T08:39:54.551Z,17.69
2023-05-09T08:40:54.532Z,17.75
2023-05-09T08:41:54.515Z,17.82
2023-05-09T08:42:54.515Z,17.89
2023-05-09T08:43:54.505Z,17.96
2023-05-09T08:44:54.510Z,18.01
2023-05-09T08:45:54.481Z,18.06
2023-05-09T08:46:54.516Z,18.11
2023-05-09T08:47:54.510Z,18.16
2023-05-09T08:48:54.449Z,18.23
2023-05-09T08:49:54.438Z,18.30
2023-05-09T08:50:54.440Z,18.34
2023-05-09T08:51:54.464Z,18.36
2023-05-09T08:52:54.394Z,18.35
2023-05-09T08:53:54.403Z,18.32
2023-05-09T08:54:54.378Z,18.28
2023-05-09T08:55:54.415Z,18.29
2023-05-09T08:56:54.364Z,18.31
2023-05-09T08:57:54.342Z,18.30
2023-05-09T08:58:54.366Z,18.27
2023-05-09T08:59:54.346Z,18.22
2023-05-09T09:00:54.333Z,18.14
2023-05-09T09:01:54.464Z,18.05
2023-05-09T09:02:54.419Z,17.96
2023-05-09T09:03:54.319Z,17.88
2023-05-09T09:04:54.349Z,17.79
2023-05-09T09:05:54.350Z,17.73
2023-05-09T09:06:54.242Z,17.68
2023-05-09T09:07:54.240Z,17.63
2023-05-09T09:08:54.220Z,17.59
2023-05-09T09:09:54.220Z,17.57
2023-05-09T09:10:54.246Z,17.56
2023-05-09T09:11:54.325Z,17.55
2023-05-09T09:12:54.190Z,17.54
2023-05-09T09:13:54.185Z,17.52
2023-05-09T09:14:54.174Z,17.52
2023-05-09T09:15:54.170Z,17.53
2023-05-09T09:16:54.224Z,17.56
2023-05-09T09:17:54.190Z,17.59
2023-05-09T09:18:54.133Z,17.61
2023-05-09T09:19:54.108Z,17.61
2023-05-09T09:20:54.120Z,17.60
2023-05-09T09:21:54.448Z,17.60
2023-05-09T09:22:54.075Z,17.60
2023-05-09T09:23:54.107Z,17.60
2023-05-09T09:24:54.064Z,17.61
2023-05-09T09:25:54.096Z,17.62
2023-05-09T09:26:54.036Z,17.64
2023-05-09T09:27:54.017Z,17.65
2023-05-09T09:28:54.049Z,17.65
2023-05-09T09:29:54.024Z,17.65
2023-05-09T09:30:54.008Z,17.66
2023-05-09T09:31:54.068Z,17.67
2023-05-09T09:32:54.007Z,17.67
2023-05-09T09:33:53.949Z,17.67
2023-05-09T09:34:53.966Z,17.67
2023-05-09T09:35:53.991Z,17.67
2023-05-09T09:36:53.940Z,17.66
2023-05-09T09:37:53.975Z,17.65
2023-05-09T09:38:53.908Z,17.66
2023-05-09T09:39:53.889Z,17.69
2023-05-09T09:40:53.900Z,17.70
2023-05-09T09:41:53.877Z,17.72
2023-05-09T09:42:53.848Z,17.74
2023-05-09T09:43:53.855Z,17.76
2023-05-09T09:44:53.836Z,17.79
2023-05-09T09:45:53.921Z,17.81
2023-05-09T09:46:53.892Z,17.82
2023-05-09T09:47:53.864Z,17.81
2023-05-09T09:48:53.826Z,17.79
2023-05-09T09:49:53.801Z,17.77
2023-05-09T09:50:53.789Z,17.76
2023-05-09T09:51:53.785Z,17.75
2023-05-09T09:52:53.770Z,17.74
2023-05-09T09:53:53.760Z,17.73
2023-05-09T09:54:53.763Z,17.73
2023-05-09T09:55:53.724Z,17.76
2023-05-09T09:56:53.717Z,17.80
2023-05-09T09:57:53.740Z,17.86
2023-05-09T09:58:53.765Z,17.92
2023-05-09T09:59:53.709Z,17.95
2023-05-09T10:00:53.678Z,17.97
2023-05-09T10:01:53.673Z,18.00
2023-05-09T10:02:53.717Z,18.03
2023-05-09T10:03:53.698Z,18.05
2023-05-09T10:04:53.643Z,18.05
2023-05-09T10:05:53.738Z,18.04
2023-05-09T10:06:53.627Z,18.04
2023-05-09T10:07:53.605Z,18.04
2023-05-09T10:08:53.595Z,18.06
2023-05-09T10:09:53.660Z,18.07
2023-05-09T10:10:53.611Z,18.08
2023-05-09T10:11:53.567Z,18.11
2023-05-09T10:12:53.575Z,18.15
2023-05-09T10:13:53.530Z,18.18
2023-05-09T10:14:53.526Z,18.20
2023-05-09T10:15:54.297Z,18.19
2023-05-09T10:16:53.656Z,18.16
2023-05-09T10:17:53.748Z,18.13
2023-05-09T10:18:53.506Z,18.11
2023-05-09T10:19:53.457Z,18.08
2023-05-09T10:20:54.010Z,18.05
2023-05-09T10:21:53.450Z,18.03
2023-05-09T10:22:53.456Z,18.02
2023-05-09T10:23:53.419Z,18.03
2023-05-09T10:24:53.647Z,18.05
2023-05-09T10:25:53.413Z,18.08
2023-05-09T10:26:53.385Z,18.13
2023-05-09T10:27:53.400Z,18.19
2023-05-09T10:28:53.407Z,18.25
2023-05-09T10:29:53.352Z,18.31
2023-05-09T10:30:53.383Z,18.39
2023-05-09T10:31:53.466Z,18.45
2023-05-09T10:32:53.346Z,18.50
2023-05-09T10:33:53.327Z,18.54
2023-05-09T10:34:53.305Z,18.58
2023-05-09T10:35:53.318Z,18.66
2023-05-09T10:36:53.337Z,18.75
2023-05-09T10:37:53.269Z,18.84
2023-05-09T10:38:53.244Z,18.89
2023-05-09T10:39:53.278Z,18.92
2023-05-09T10:40:53.239Z,18.95
2023-05-09T10:41:53.226Z,18.97
2023-05-09T10:42:53.203Z,19.00
2023-05-09T10:43:53.191Z,19.01
2023-05-09T10:44:53.213Z,19.01
2023-05-09T10:45:53.268Z,19.03
2023-05-09T10:46:53.166Z,19.08
2023-05-09T10:47:53.310Z,19.13
2023-05-09T10:48:53.167Z,19.23
2023-05-09T10:49:53.261Z,19.37
2023-05-09T10:50:53.105Z,19.51
2023-05-09T10:51:53.099Z,19.59
2023-05-09T10:52:53.098Z,19.65
2023-05-09T10:53:53.093Z,19.72
2023-05-09T10:54:53.089Z,19.76
2023-05-09T10:55:53.206Z,19.80
2023-05-09T10:56:53.089Z,19.81
2023-05-09T10:57:53.048Z,19.82
2023-05-09T10:58:53.044Z,19.85
2023-05-09T10:59:53.040Z,19.91
2023-05-09T11:00:54.605Z,19.97
2023-05-09T11:01:53.039Z,20.00
2023-05-09T11:02:53.178Z,20.00
2023-05-09T11:03:53.124Z,20.00
2023-05-09T11:04:52.968Z,19.97
2023-05-09T11:05:53.009Z,19.93
2023-05-09T11:06:54.038Z,19.97
2023-05-09T11:07:52.962Z,20.08
2023-05-09T11:08:53.000Z,20.19
2023-05-09T11:09:52.936Z,20.25
2023-05-09T11:10:52.916Z,20.27
2023-05-09T11:11:52.898Z,20.27
2023-05-09T11:12:53.937Z,20.24
2023-05-09T11:13:52.886Z,20.16
2023-05-09T11:14:52.977Z,20.08
2023-05-09T11:15:52.851Z,20.04
2023-05-09T11:16:52.859Z,20.05
2023-05-09T11:17:52.841Z,20.07
2023-05-09T11:18:52.883Z,20.07
2023-05-09T11:19:52.810Z,20.03
2023-05-09T11:20:52.811Z,19.99
2023-05-09T11:21:53.022Z,19.94
2023-05-09T11:22:52.777Z,19.89
2023-05-09T11:23:55.147Z,19.86
2023-05-09T11:24:52.799Z,19.89
2023-05-09T11:25:52.755Z,19.94
2023-05-09T11:26:52.740Z,20.00
2023-05-09T11:27:52.732Z,20.07
2023-05-09T11:28:52.750Z,20.07
2023-05-09T11:29:52.724Z,20.02
2023-05-09T11:30:53.905Z,20.01
2023-05-09T11:31:52.781Z,20.05
2023-05-09T11:32:52.670Z,20.09
2023-05-09T11:33:52.758Z,20.14
2023-05-09T11:34:52.666Z,20.20
2023-05-09T11:35:52.667Z,20.23
2023-05-09T11:36:53.934Z,20.24
2023-05-09T11:37:52.649Z,20.23
2023-05-09T11:38:52.601Z,20.21
2023-05-09T11:39:52.630Z,20.20
2023-05-09T11:40:52.688Z,20.19
2023-05-09T11:41:52.573Z,20.20
2023-05-09T11:42:53.021Z,20.22
2023-05-09T11:43:52.582Z,20.27
2023-05-09T11:44:52.541Z,20.29
2023-05-09T11:45:52.593Z,20.31
2023-05-09T11:46:52.545Z,20.30
2023-05-09T11:47:52.547Z,20.28
2023-05-09T11:48:53.534Z,20.26
2023-05-09T11:49:52.601Z,20.27
2023-05-09T11:50:52.489Z,20.32
2023-05-09T11:51:52.494Z,20.34
2023-05-09T11:52:52.518Z,20.31
2023-05-09T11:53:52.494Z,20.29
2023-05-09T11:54:52.527Z,20.29
2023-05-09T11:55:52.439Z,20.32
2023-05-09T11:56:52.474Z,20.38
2023-05-09T11:57:52.411Z,20.44
2023-05-09T11:58:52.438Z,20.50
2023-05-09T11:59:52.409Z,20.55
2023-05-09T12:00:52.385Z,20.59
2023-05-09T12:01:52.355Z,20.63
2023-05-09T12:02:52.446Z,20.69
2023-05-09T12:03:52.473Z,20.75
2023-05-09T12:04:52.522Z,20.80
2023-05-09T12:05:52.348Z,20.81
2023-05-09T12:06:52.320Z,20.78
2023-05-09T12:07:52.510Z,20.73
2023-05-09T12:08:52.282Z,20.69
2023-05-09T12:09:52.350Z,20.66
2023-05-09T12:10:52.277Z,20.63
2023-05-09T12:11:52.327Z,20.62
2023-05-09T12:12:52.288Z,20.62
2023-05-09T12:13:52.339Z,20.63
2023-05-09T12:14:52.238Z,20.66
2023-05-09T12:15:52.298Z,20.67
2023-05-09T12:16:52.249Z,20.66
2023-05-09T12:17:52.350Z,20.66
2023-05-09T12:18:52.265Z,20.67
2023-05-09T12:19:52.589Z,20.70
2023-05-09T12:20:52.225Z,20.74
2023-05-09T12:21:52.180Z,20.75
2023-05-09T12:22:52.144Z,20.73
2023-05-09T12:23:53.382Z,20.72
2023-05-09T12:24:52.158Z,20.70
2023-05-09T12:25:52.219Z,20.67
2023-05-09T12:26:52.133Z,20.66
2023-05-09T12:27:52.094Z,20.69
2023-05-09T12:28:52.084Z,20.71
2023-05-09T12:29:53.657Z,20.70
2023-05-09T12:30:52.044Z,20.68
2023-05-09T12:31:52.151Z,20.64
2023-05-09T12:32:52.084Z,20.62
2023-05-09T12:33:52.157Z,20.64
2023-05-09T12:34:52.024Z,20.63
2023-05-09T12:35:53.964Z,20.62
2023-05-09T12:36:52.016Z,20.60
2023-05-09T12:37:52.026Z,20.56
2023-05-09T12:38:51.998Z,20.53
2023-05-09T12:39:51.965Z,20.55
2023-05-09T12:40:51.953Z,20.60
2023-05-09T12:42:01.106Z,20.63
2023-05-09T12:42:51.970Z,20.64
2023-05-09T12:43:51.910Z,20.63
2023-05-09T12:44:51.913Z,20.59
2023-05-09T12:45:51.883Z,20.54
2023-05-09T12:46:51.954Z,20.54
2023-05-09T12:47:52.111Z,20.56
2023-05-09T12:48:51.907Z,20.58
2023-05-09T12:49:51.846Z,20.58
2023-05-09T12:50:51.837Z,20.57
2023-05-09T12:51:51.842Z,20.52
2023-05-09T12:53:02.892Z,20.47